sensor_id;sensor_type;location;lat;lon;timestamp;P1;durP1;ratioP1;P2;durP2;ratioP2
22103;SDS011;11218;48.886;9.426;2023-02-01T00:01:34;17.45;;;5.25;;
22103;SDS011;11218;48.886;9.426;2023-02-01T00:04:03;10.30;;;4.28;;
22103;SDS011;11218;48.886;9.426;2023-02-01T00:06:31;14.07;;;4.57;;
22103;SDS011;11218;48.886;9.426;2023-02-01T00:08:59;17.05;;;5.18;;
22103;SDS011;11218;48.886;9.426;2023-02-01T00:11:27;12.95;;;4.63;;
22103;SDS011;11218;48.886;9.426;2023-02-01T00:13:56;14.00;;;5.75;;
22103;SDS011;11218;48.886;9.426;2023-02-01T00:16:25;16.20;;;5.25;;
22103;SDS011;11218;48.886;9.426;2023-02-01T00:18:58;20.40;;;5.90;;
22103;SDS011;11218;48.886;9.426;2023-02-01T00:21:27;25.27;;;6.43;;
22103;SDS011;11218;48.886;9.426;2023-02-01T00:23:56;16.90;;;5.00;;
22103;SDS011;11218;48.886;9.426;2023-02-01T00:26:26;12.15;;;4.35;;
22103;SDS011;11218;48.886;9.426;2023-02-01T00:29:01;15.95;;;4.93;;
22103;SDS011;11218;48.886;9.426;2023-02-01T00:31:31;15.50;;;4.97;;
22103;SDS011;11218;48.886;9.426;2023-02-01T00:34:01;16.77;;;5.18;;
22103;SDS011;11218;48.886;9.426;2023-02-01T00:36:33;9.95;;;4.60;;
22103;SDS011;11218;48.886;9.426;2023-02-01T00:39:01;14.60;;;5.03;;
22103;SDS011;11218;48.886;9.426;2023-02-01T00:41:30;18.58;;;5.45;;
22103;SDS011;11218;48.886;9.426;2023-02-01T00:43:58;13.75;;;4.68;;
22103;SDS011;11218;48.886;9.426;2023-02-01T00:46:27;16.95;;;4.78;;
22103;SDS011;11218;48.886;9.426;2023-02-01T00:48:56;14.75;;;4.78;;
22103;SDS011;11218;48.886;9.426;2023-02-01T00:51:26;17.83;;;5.25;;
22103;SDS011;11218;48.886;9.426;2023-02-01T00:53:55;14.77;;;4.68;;
22103;SDS011;11218;48.886;9.426;2023-02-01T00:56:24;21.52;;;5.65;;
22103;SDS011;11218;48.886;9.426;2023-02-01T00:58:53;17.73;;;5.20;;
22103;SDS011;11218;48.886;9.426;2023-02-01T01:01:23;16.88;;;4.88;;
22103;SDS011;11218;48.886;9.426;2023-02-01T01:03:53;13.93;;;4.63;;
22103;SDS011;11218;48.886;9.426;2023-02-01T01:06:26;13.93;;;4.35;;
22103;SDS011;11218;48.886;9.426;2023-02-01T01:08:56;14.25;;;4.25;;
22103;SDS011;11218;48.886;9.426;2023-02-01T01:11:26;16.02;;;5.05;;
22103;SDS011;11218;48.886;9.426;2023-02-01T01:13:56;11.23;;;3.83;;
22103;SDS011;11218;48.886;9.426;2023-02-01T01:16:26;14.50;;;4.38;;
22103;SDS011;11218;48.886;9.426;2023-02-01T01:18:55;8.07;;;3.50;;
22103;SDS011;11218;48.886;9.426;2023-02-01T01:21:24;12.60;;;4.28;;
22103;SDS011;11218;48.886;9.426;2023-02-01T01:23:54;11.85;;;4.03;;
22103;SDS011;11218;48.886;9.426;2023-02-01T01:26:23;12.30;;;4.00;;
22103;SDS011;11218;48.886;9.426;2023-02-01T01:28:56;13.70;;;4.35;;
22103;SDS011;11218;48.886;9.426;2023-02-01T01:31:26;18.25;;;4.80;;
22103;SDS011;11218;48.886;9.426;2023-02-01T01:33:55;11.13;;;3.65;;
22103;SDS011;11218;48.886;9.426;2023-02-01T01:36:26;14.65;;;4.32;;
22103;SDS011;11218;48.886;9.426;2023-02-01T01:38:56;11.50;;;3.65;;
22103;SDS011;11218;48.886;9.426;2023-02-01T01:41:25;13.95;;;3.90;;
22103;SDS011;11218;48.886;9.426;2023-02-01T01:43:58;11.82;;;3.72;;
22103;SDS011;11218;48.886;9.426;2023-02-01T01:46:28;11.05;;;3.58;;
22103;SDS011;11218;48.886;9.426;2023-02-01T01:48:59;17.58;;;4.57;;
22103;SDS011;11218;48.886;9.426;2023-02-01T01:51:35;10.05;;;3.70;;
22103;SDS011;11218;48.886;9.426;2023-02-01T01:54:08;12.23;;;3.45;;
22103;SDS011;11218;48.886;9.426;2023-02-01T01:56:39;9.73;;;3.13;;
22103;SDS011;11218;48.886;9.426;2023-02-01T01:59:10;9.63;;;3.13;;
22103;SDS011;11218;48.886;9.426;2023-02-01T02:01:39;13.02;;;3.50;;
22103;SDS011;11218;48.886;9.426;2023-02-01T02:04:07;9.85;;;3.05;;
22103;SDS011;11218;48.886;9.426;2023-02-01T02:06:39;10.77;;;3.38;;
22103;SDS011;11218;48.886;9.426;2023-02-01T02:09:14;11.40;;;3.00;;
22103;SDS011;11218;48.886;9.426;2023-02-01T02:11:43;11.15;;;3.05;;
22103;SDS011;11218;48.886;9.426;2023-02-01T02:14:12;10.48;;;3.05;;
22103;SDS011;11218;48.886;9.426;2023-02-01T02:16:46;11.90;;;3.38;;
22103;SDS011;11218;48.886;9.426;2023-02-01T02:19:43;11.15;;;3.15;;
22103;SDS011;11218;48.886;9.426;2023-02-01T02:22:40;10.55;;;3.08;;
22103;SDS011;11218;48.886;9.426;2023-02-01T02:25:23;6.45;;;2.60;;
22103;SDS011;11218;48.886;9.426;2023-02-01T02:28:20;11.35;;;3.10;;
22103;SDS011;11218;48.886;9.426;2023-02-01T02:31:13;11.55;;;3.20;;
22103;SDS011;11218;48.886;9.426;2023-02-01T02:34:01;5.10;;;2.35;;
22103;SDS011;11218;48.886;9.426;2023-02-01T02:36:39;8.93;;;2.88;;
22103;SDS011;11218;48.886;9.426;2023-02-01T02:39:19;9.48;;;2.75;;
22103;SDS011;11218;48.886;9.426;2023-02-01T02:41:53;10.27;;;3.20;;
22103;SDS011;11218;48.886;9.426;2023-02-01T02:44:47;10.63;;;3.22;;
22103;SDS011;11218;48.886;9.426;2023-02-01T02:47:41;16.17;;;3.88;;
22103;SDS011;11218;48.886;9.426;2023-02-01T02:50:20;7.38;;;2.95;;
22103;SDS011;11218;48.886;9.426;2023-02-01T02:53:11;9.43;;;3.05;;
22103;SDS011;11218;48.886;9.426;2023-02-01T02:56:00;11.07;;;3.22;;
22103;SDS011;11218;48.886;9.426;2023-02-01T02:58:50;11.27;;;3.45;;
22103;SDS011;11218;48.886;9.426;2023-02-01T03:01:37;6.00;;;2.92;;
22103;SDS011;11218;48.886;9.426;2023-02-01T03:04:23;10.73;;;3.30;;
22103;SDS011;11218;48.886;9.426;2023-02-01T03:06:53;7.78;;;2.97;;
22103;SDS011;11218;48.886;9.426;2023-02-01T03:09:23;11.23;;;3.40;;
22103;SDS011;11218;48.886;9.426;2023-02-01T03:11:55;11.73;;;3.25;;
22103;SDS011;11218;48.886;9.426;2023-02-01T03:14:46;11.98;;;3.33;;
22103;SDS011;11218;48.886;9.426;2023-02-01T03:17:21;11.55;;;3.58;;
22103;SDS011;11218;48.886;9.426;2023-02-01T03:19:57;13.55;;;3.85;;
22103;SDS011;11218;48.886;9.426;2023-02-01T03:22:31;10.35;;;3.45;;
22103;SDS011;11218;48.886;9.426;2023-02-01T03:25:03;11.82;;;3.22;;
22103;SDS011;11218;48.886;9.426;2023-02-01T03:27:35;12.98;;;3.95;;
22103;SDS011;11218;48.886;9.426;2023-02-01T03:30:11;11.38;;;3.75;;
22103;SDS011;11218;48.886;9.426;2023-02-01T03:32:47;10.43;;;3.15;;
22103;SDS011;11218;48.886;9.426;2023-02-01T03:35:28;12.80;;;3.75;;
22103;SDS011;11218;48.886;9.426;2023-02-01T03:38:03;18.13;;;4.47;;
22103;SDS011;11218;48.886;9.426;2023-02-01T03:40:38;10.95;;;3.47;;
22103;SDS011;11218;48.886;9.426;2023-02-01T03:43:09;17.33;;;4.35;;
22103;SDS011;11218;48.886;9.426;2023-02-01T03:45:43;21.23;;;5.03;;
22103;SDS011;11218;48.886;9.426;2023-02-01T03:48:13;14.73;;;4.00;;
22103;SDS011;11218;48.886;9.426;2023-02-01T03:50:44;12.80;;;3.47;;
22103;SDS011;11218;48.886;9.426;2023-02-01T03:53:19;13.65;;;4.03;;
22103;SDS011;11218;48.886;9.426;2023-02-01T03:55:49;16.35;;;4.28;;
22103;SDS011;11218;48.886;9.426;2023-02-01T03:58:20;17.02;;;6.60;;
22103;SDS011;11218;48.886;9.426;2023-02-01T04:00:51;20.92;;;8.73;;
22103;SDS011;11218;48.886;9.426;2023-02-01T04:03:21;19.02;;;6.72;;
22103;SDS011;11218;48.886;9.426;2023-02-01T04:05:51;21.23;;;7.97;;
22103;SDS011;11218;48.886;9.426;2023-02-01T04:08:22;6.50;;;4.25;;
22103;SDS011;11218;48.886;9.426;2023-02-01T04:10:51;13.82;;;4.68;;
22103;SDS011;11218;48.886;9.426;2023-02-01T04:13:19;14.52;;;4.60;;
22103;SDS011;11218;48.886;9.426;2023-02-01T04:15:47;13.60;;;4.32;;
22103;SDS011;11218;48.886;9.426;2023-02-01T04:18:17;11.10;;;4.53;;
22103;SDS011;11218;48.886;9.426;2023-02-01T04:20:46;16.85;;;6.20;;
22103;SDS011;11218;48.886;9.426;2023-02-01T04:23:14;18.00;;;5.10;;
22103;SDS011;11218;48.886;9.426;2023-02-01T04:25:45;25.23;;;6.88;;
22103;SDS011;11218;48.886;9.426;2023-02-01T04:28:13;16.08;;;5.90;;
22103;SDS011;11218;48.886;9.426;2023-02-01T04:30:41;12.68;;;4.78;;
22103;SDS011;11218;48.886;9.426;2023-02-01T04:33:09;12.70;;;4.32;;
22103;SDS011;11218;48.886;9.426;2023-02-01T04:35:40;15.55;;;4.40;;
22103;SDS011;11218;48.886;9.426;2023-02-01T04:38:08;17.80;;;4.82;;
22103;SDS011;11218;48.886;9.426;2023-02-01T04:40:37;14.43;;;4.50;;
22103;SDS011;11218;48.886;9.426;2023-02-01T04:43:06;11.23;;;3.58;;
22103;SDS011;11218;48.886;9.426;2023-02-01T04:45:34;10.07;;;4.60;;
22103;SDS011;11218;48.886;9.426;2023-02-01T04:48:03;14.38;;;5.43;;
22103;SDS011;11218;48.886;9.426;2023-02-01T04:50:32;13.30;;;4.93;;
22103;SDS011;11218;48.886;9.426;2023-02-01T04:53:00;14.32;;;4.45;;
22103;SDS011;11218;48.886;9.426;2023-02-01T04:55:28;14.13;;;3.95;;
22103;SDS011;11218;48.886;9.426;2023-02-01T04:57:57;8.98;;;3.35;;
22103;SDS011;11218;48.886;9.426;2023-02-01T05:00:26;29.65;;;6.03;;
22103;SDS011;11218;48.886;9.426;2023-02-01T05:02:55;8.68;;;3.10;;
22103;SDS011;11218;48.886;9.426;2023-02-01T05:05:23;11.25;;;3.55;;
22103;SDS011;11218;48.886;9.426;2023-02-01T05:07:52;10.70;;;3.92;;
22103;SDS011;11218;48.886;9.426;2023-02-01T05:10:20;12.65;;;3.75;;
22103;SDS011;11218;48.886;9.426;2023-02-01T05:12:50;13.30;;;3.85;;
22103;SDS011;11218;48.886;9.426;2023-02-01T05:15:37;11.85;;;3.78;;
22103;SDS011;11218;48.886;9.426;2023-02-01T05:18:06;12.75;;;3.83;;
22103;SDS011;11218;48.886;9.426;2023-02-01T05:20:34;12.50;;;3.70;;
22103;SDS011;11218;48.886;9.426;2023-02-01T05:23:03;10.60;;;3.53;;
22103;SDS011;11218;48.886;9.426;2023-02-01T05:25:32;14.55;;;3.78;;
22103;SDS011;11218;48.886;9.426;2023-02-01T05:28:02;12.27;;;3.70;;
22103;SDS011;11218;48.886;9.426;2023-02-01T05:30:30;13.10;;;3.83;;
22103;SDS011;11218;48.886;9.426;2023-02-01T05:33:03;10.40;;;3.60;;
22103;SDS011;11218;48.886;9.426;2023-02-01T05:35:31;9.35;;;3.30;;
22103;SDS011;11218;48.886;9.426;2023-02-01T05:38:00;14.48;;;4.13;;
22103;SDS011;11218;48.886;9.426;2023-02-01T05:40:28;13.35;;;3.97;;
22103;SDS011;11218;48.886;9.426;2023-02-01T05:42:56;14.15;;;4.10;;
22103;SDS011;11218;48.886;9.426;2023-02-01T05:45:24;23.17;;;5.25;;
22103;SDS011;11218;48.886;9.426;2023-02-01T05:47:53;11.93;;;3.53;;
22103;SDS011;11218;48.886;9.426;2023-02-01T05:50:26;12.02;;;3.65;;
22103;SDS011;11218;48.886;9.426;2023-02-01T05:52:54;8.65;;;3.42;;
22103;SDS011;11218;48.886;9.426;2023-02-01T05:55:22;12.13;;;3.45;;
22103;SDS011;11218;48.886;9.426;2023-02-01T05:57:51;11.63;;;3.85;;
22103;SDS011;11218;48.886;9.426;2023-02-01T06:00:20;6.30;;;3.10;;
22103;SDS011;11218;48.886;9.426;2023-02-01T06:02:52;8.07;;;3.47;;
22103;SDS011;11218;48.886;9.426;2023-02-01T06:05:20;8.35;;;3.28;;
22103;SDS011;11218;48.886;9.426;2023-02-01T06:07:52;8.48;;;3.08;;
22103;SDS011;11218;48.886;9.426;2023-02-01T06:10:20;8.32;;;3.28;;
22103;SDS011;11218;48.886;9.426;2023-02-01T06:12:49;11.90;;;4.18;;
22103;SDS011;11218;48.886;9.426;2023-02-01T06:15:17;10.82;;;3.65;;
22103;SDS011;11218;48.886;9.426;2023-02-01T06:17:45;8.48;;;2.83;;
22103;SDS011;11218;48.886;9.426;2023-02-01T06:20:15;10.05;;;3.10;;
22103;SDS011;11218;48.886;9.426;2023-02-01T06:22:44;10.00;;;3.63;;
22103;SDS011;11218;48.886;9.426;2023-02-01T06:25:17;6.35;;;2.85;;
22103;SDS011;11218;48.886;9.426;2023-02-01T06:27:48;6.03;;;2.70;;
22103;SDS011;11218;48.886;9.426;2023-02-01T06:30:17;8.63;;;2.97;;
22103;SDS011;11218;48.886;9.426;2023-02-01T06:32:51;10.65;;;3.25;;
22103;SDS011;11218;48.886;9.426;2023-02-01T06:35:23;11.18;;;3.40;;
22103;SDS011;11218;48.886;9.426;2023-02-01T06:37:51;10.68;;;3.55;;
22103;SDS011;11218;48.886;9.426;2023-02-01T06:40:26;14.38;;;3.65;;
22103;SDS011;11218;48.886;9.426;2023-02-01T06:42:54;12.60;;;4.60;;
22103;SDS011;11218;48.886;9.426;2023-02-01T06:45:23;13.65;;;3.60;;
22103;SDS011;11218;48.886;9.426;2023-02-01T06:47:52;11.05;;;3.53;;
22103;SDS011;11218;48.886;9.426;2023-02-01T06:50:20;7.35;;;3.17;;
22103;SDS011;11218;48.886;9.426;2023-02-01T06:52:49;10.77;;;3.50;;
22103;SDS011;11218;48.886;9.426;2023-02-01T06:55:18;10.20;;;3.58;;
22103;SDS011;11218;48.886;9.426;2023-02-01T06:57:48;8.10;;;3.17;;
22103;SDS011;11218;48.886;9.426;2023-02-01T07:00:21;8.50;;;3.35;;
22103;SDS011;11218;48.886;9.426;2023-02-01T07:02:50;8.95;;;3.45;;
22103;SDS011;11218;48.886;9.426;2023-02-01T07:05:27;13.30;;;4.38;;
22103;SDS011;11218;48.886;9.426;2023-02-01T07:08:17;11.02;;;3.83;;
22103;SDS011;11218;48.886;9.426;2023-02-01T07:10:45;10.30;;;3.40;;
22103;SDS011;11218;48.886;9.426;2023-02-01T07:13:18;8.77;;;3.53;;
22103;SDS011;11218;48.886;9.426;2023-02-01T07:15:49;12.43;;;4.03;;
22103;SDS011;11218;48.886;9.426;2023-02-01T07:18:21;12.43;;;4.05;;
22103;SDS011;11218;48.886;9.426;2023-02-01T07:20:49;9.27;;;3.92;;
22103;SDS011;11218;48.886;9.426;2023-02-01T07:23:19;9.80;;;4.07;;
22103;SDS011;11218;48.886;9.426;2023-02-01T07:25:54;14.77;;;4.55;;
22103;SDS011;11218;48.886;9.426;2023-02-01T07:28:24;11.82;;;3.95;;
22103;SDS011;11218;48.886;9.426;2023-02-01T07:30:53;12.07;;;3.92;;
22103;SDS011;11218;48.886;9.426;2023-02-01T07:33:21;10.90;;;3.97;;
22103;SDS011;11218;48.886;9.426;2023-02-01T07:35:53;20.73;;;5.43;;
22103;SDS011;11218;48.886;9.426;2023-02-01T07:38:21;24.75;;;6.28;;
22103;SDS011;11218;48.886;9.426;2023-02-01T07:40:51;32.38;;;8.02;;
22103;SDS011;11218;48.886;9.426;2023-02-01T07:43:26;21.95;;;6.85;;
22103;SDS011;11218;48.886;9.426;2023-02-01T07:45:55;25.27;;;6.82;;
22103;SDS011;11218;48.886;9.426;2023-02-01T07:48:23;31.23;;;8.13;;
22103;SDS011;11218;48.886;9.426;2023-02-01T07:50:56;21.52;;;7.78;;
22103;SDS011;11218;48.886;9.426;2023-02-01T07:53:26;29.23;;;7.68;;
22103;SDS011;11218;48.886;9.426;2023-02-01T07:55:54;32.22;;;7.78;;
22103;SDS011;11218;48.886;9.426;2023-02-01T07:58:23;25.88;;;6.88;;
22103;SDS011;11218;48.886;9.426;2023-02-01T08:00:53;27.08;;;7.53;;
22103;SDS011;11218;48.886;9.426;2023-02-01T08:03:39;17.13;;;6.82;;
22103;SDS011;11218;48.886;9.426;2023-02-01T08:06:08;23.98;;;7.45;;
22103;SDS011;11218;48.886;9.426;2023-02-01T08:08:37;26.52;;;7.75;;
22103;SDS011;11218;48.886;9.426;2023-02-01T08:11:06;26.65;;;7.70;;
22103;SDS011;11218;48.886;9.426;2023-02-01T08:13:35;28.52;;;8.15;;
22103;SDS011;11218;48.886;9.426;2023-02-01T08:16:08;22.92;;;7.85;;
22103;SDS011;11218;48.886;9.426;2023-02-01T08:18:38;23.90;;;7.72;;
22103;SDS011;11218;48.886;9.426;2023-02-01T08:21:07;25.35;;;6.78;;
22103;SDS011;11218;48.886;9.426;2023-02-01T08:23:38;21.52;;;5.93;;
22103;SDS011;11218;48.886;9.426;2023-02-01T08:26:07;32.17;;;7.55;;
22103;SDS011;11218;48.886;9.426;2023-02-01T08:28:39;23.95;;;6.72;;
22103;SDS011;11218;48.886;9.426;2023-02-01T08:31:11;23.65;;;6.32;;
22103;SDS011;11218;48.886;9.426;2023-02-01T08:33:41;20.95;;;6.38;;
22103;SDS011;11218;48.886;9.426;2023-02-01T08:36:11;23.75;;;6.63;;
22103;SDS011;11218;48.886;9.426;2023-02-01T08:38:39;25.55;;;6.88;;
22103;SDS011;11218;48.886;9.426;2023-02-01T08:41:08;26.45;;;6.90;;
22103;SDS011;11218;48.886;9.426;2023-02-01T08:43:37;26.25;;;6.43;;
22103;SDS011;11218;48.886;9.426;2023-02-01T08:46:06;27.65;;;6.88;;
22103;SDS011;11218;48.886;9.426;2023-02-01T08:48:36;24.73;;;6.90;;
22103;SDS011;11218;48.886;9.426;2023-02-01T08:51:05;22.65;;;6.65;;
22103;SDS011;11218;48.886;9.426;2023-02-01T08:53:36;24.77;;;6.50;;
22103;SDS011;11218;48.886;9.426;2023-02-01T08:56:06;33.53;;;6.88;;
22103;SDS011;11218;48.886;9.426;2023-02-01T08:58:35;19.98;;;5.95;;
22103;SDS011;11218;48.886;9.426;2023-02-01T09:01:06;28.42;;;5.90;;
22103;SDS011;11218;48.886;9.426;2023-02-01T09:03:39;25.40;;;6.13;;
22103;SDS011;11218;48.886;9.426;2023-02-01T09:06:08;24.60;;;6.10;;
22103;SDS011;11218;48.886;9.426;2023-02-01T09:08:38;27.88;;;6.70;;
22103;SDS011;11218;48.886;9.426;2023-02-01T09:11:10;33.72;;;7.25;;
22103;SDS011;11218;48.886;9.426;2023-02-01T09:13:40;23.60;;;6.38;;
22103;SDS011;11218;48.886;9.426;2023-02-01T09:16:09;29.30;;;6.75;;
22103;SDS011;11218;48.886;9.426;2023-02-01T09:18:39;31.17;;;6.38;;
22103;SDS011;11218;48.886;9.426;2023-02-01T09:21:27;21.50;;;5.75;;
22103;SDS011;11218;48.886;9.426;2023-02-01T09:23:56;17.58;;;4.95;;
22103;SDS011;11218;48.886;9.426;2023-02-01T09:26:26;23.92;;;5.10;;
22103;SDS011;11218;48.886;9.426;2023-02-01T09:28:58;20.52;;;5.18;;
22103;SDS011;11218;48.886;9.426;2023-02-01T09:31:27;21.02;;;4.78;;
22103;SDS011;11218;48.886;9.426;2023-02-01T09:33:57;16.88;;;4.85;;
22103;SDS011;11218;48.886;9.426;2023-02-01T09:36:25;24.70;;;5.93;;
22103;SDS011;11218;48.886;9.426;2023-02-01T09:38:56;18.95;;;4.90;;
22103;SDS011;11218;48.886;9.426;2023-02-01T09:41:33;53.45;;;9.43;;
22103;SDS011;11218;48.886;9.426;2023-02-01T09:44:17;22.92;;;5.47;;
22103;SDS011;11218;48.886;9.426;2023-02-01T09:47:04;19.95;;;5.05;;
22103;SDS011;11218;48.886;9.426;2023-02-01T09:49:45;24.60;;;5.63;;
22103;SDS011;11218;48.886;9.426;2023-02-01T09:52:19;27.98;;;6.07;;
22103;SDS011;11218;48.886;9.426;2023-02-01T09:54:57;25.67;;;5.28;;
22103;SDS011;11218;48.886;9.426;2023-02-01T09:57:32;19.98;;;5.30;;
22103;SDS011;11218;48.886;9.426;2023-02-01T10:00:13;20.80;;;5.18;;
22103;SDS011;11218;48.886;9.426;2023-02-01T10:02:45;29.15;;;6.15;;
22103;SDS011;11218;48.886;9.426;2023-02-01T10:05:16;22.50;;;4.93;;
22103;SDS011;11218;48.886;9.426;2023-02-01T10:07:54;22.92;;;5.30;;
22103;SDS011;11218;48.886;9.426;2023-02-01T10:10:33;21.42;;;5.38;;
22103;SDS011;11218;48.886;9.426;2023-02-01T10:13:09;23.48;;;5.82;;
22103;SDS011;11218;48.886;9.426;2023-02-01T10:15:52;22.40;;;5.03;;
22103;SDS011;11218;48.886;9.426;2023-02-01T10:18:36;26.58;;;5.35;;
22103;SDS011;11218;48.886;9.426;2023-02-01T10:21:31;23.25;;;5.40;;
22103;SDS011;11218;48.886;9.426;2023-02-01T10:24:22;18.90;;;4.65;;
22103;SDS011;11218;48.886;9.426;2023-02-01T10:27:19;21.60;;;5.18;;
22103;SDS011;11218;48.886;9.426;2023-02-01T10:29:51;24.58;;;5.00;;
22103;SDS011;11218;48.886;9.426;2023-02-01T10:32:24;24.65;;;5.70;;
22103;SDS011;11218;48.886;9.426;2023-02-01T10:34:59;23.45;;;4.80;;
22103;SDS011;11218;48.886;9.426;2023-02-01T10:37:31;25.48;;;5.15;;
22103;SDS011;11218;48.886;9.426;2023-02-01T10:40:02;19.98;;;4.63;;
22103;SDS011;11218;48.886;9.426;2023-02-01T10:42:40;30.55;;;5.60;;
22103;SDS011;11218;48.886;9.426;2023-02-01T10:45:11;25.73;;;4.93;;
22103;SDS011;11218;48.886;9.426;2023-02-01T10:47:43;25.45;;;4.93;;
22103;SDS011;11218;48.886;9.426;2023-02-01T10:50:16;17.67;;;4.50;;
22103;SDS011;11218;48.886;9.426;2023-02-01T10:52:54;26.13;;;4.80;;
22103;SDS011;11218;48.886;9.426;2023-02-01T10:55:35;29.10;;;4.95;;
22103;SDS011;11218;48.886;9.426;2023-02-01T10:58:07;29.65;;;5.03;;
22103;SDS011;11218;48.886;9.426;2023-02-01T11:00:44;32.78;;;6.43;;
22103;SDS011;11218;48.886;9.426;2023-02-01T11:03:31;31.10;;;5.85;;
22103;SDS011;11218;48.886;9.426;2023-02-01T11:06:03;28.65;;;4.93;;
22103;SDS011;11218;48.886;9.426;2023-02-01T11:08:44;30.70;;;5.07;;
22103;SDS011;11218;48.886;9.426;2023-02-01T11:11:14;31.92;;;5.93;;
22103;SDS011;11218;48.886;9.426;2023-02-01T11:13:45;25.40;;;5.30;;
22103;SDS011;11218;48.886;9.426;2023-02-01T11:16:20;30.17;;;5.75;;
22103;SDS011;11218;48.886;9.426;2023-02-01T11:18:52;30.17;;;6.38;;
22103;SDS011;11218;48.886;9.426;2023-02-01T11:21:22;30.13;;;7.72;;
22103;SDS011;11218;48.886;9.426;2023-02-01T11:23:52;31.25;;;6.35;;
22103;SDS011;11218;48.886;9.426;2023-02-01T11:26:21;24.67;;;8.20;;
22103;SDS011;11218;48.886;9.426;2023-02-01T11:28:52;26.38;;;5.30;;
22103;SDS011;11218;48.886;9.426;2023-02-01T11:31:26;28.35;;;5.78;;
22103;SDS011;11218;48.886;9.426;2023-02-01T11:34:04;27.92;;;6.13;;
22103;SDS011;11218;48.886;9.426;2023-02-01T11:36:35;18.58;;;4.40;;
22103;SDS011;11218;48.886;9.426;2023-02-01T11:39:10;20.05;;;5.30;;
22103;SDS011;11218;48.886;9.426;2023-02-01T11:41:57;28.02;;;4.82;;
22103;SDS011;11218;48.886;9.426;2023-02-01T11:44:30;21.65;;;4.30;;
22103;SDS011;11218;48.886;9.426;2023-02-01T11:47:20;22.60;;;4.28;;
22103;SDS011;11218;48.886;9.426;2023-02-01T11:49:54;17.55;;;4.00;;
22103;SDS011;11218;48.886;9.426;2023-02-01T11:52:41;21.15;;;4.30;;
22103;SDS011;11218;48.886;9.426;2023-02-01T11:55:29;20.17;;;4.57;;
22103;SDS011;11218;48.886;9.426;2023-02-01T11:58:10;15.60;;;3.95;;
22103;SDS011;11218;48.886;9.426;2023-02-01T12:00:55;16.52;;;3.83;;
22103;SDS011;11218;48.886;9.426;2023-02-01T12:06:46;25.30;;;4.10;;
22103;SDS011;11218;48.886;9.426;2023-02-01T12:09:24;35.35;;;6.07;;
22103;SDS011;11218;48.886;9.426;2023-02-01T12:12:16;15.07;;;3.72;;
22103;SDS011;11218;48.886;9.426;2023-02-01T12:14:57;19.95;;;4.55;;
22103;SDS011;11218;48.886;9.426;2023-02-01T12:23:44;29.70;;;4.85;;
22103;SDS011;11218;48.886;9.426;2023-02-01T12:29:33;22.92;;;4.43;;
22103;SDS011;11218;48.886;9.426;2023-02-01T12:32:16;23.02;;;4.07;;
22103;SDS011;11218;48.886;9.426;2023-02-01T12:35:01;24.17;;;4.47;;
22103;SDS011;11218;48.886;9.426;2023-02-01T12:37:58;18.67;;;4.18;;
22103;SDS011;11218;48.886;9.426;2023-02-01T12:40:43;27.23;;;5.25;;
22103;SDS011;11218;48.886;9.426;2023-02-01T12:43:22;19.63;;;4.35;;
22103;SDS011;11218;48.886;9.426;2023-02-01T12:45:58;22.27;;;3.95;;
22103;SDS011;11218;48.886;9.426;2023-02-01T12:48:36;24.95;;;3.97;;
22103;SDS011;11218;48.886;9.426;2023-02-01T12:51:12;25.92;;;4.88;;
22103;SDS011;11218;48.886;9.426;2023-02-01T12:53:44;25.55;;;4.40;;
22103;SDS011;11218;48.886;9.426;2023-02-01T12:56:16;34.33;;;5.80;;
22103;SDS011;11218;48.886;9.426;2023-02-01T12:58:50;21.65;;;4.47;;
22103;SDS011;11218;48.886;9.426;2023-02-01T13:01:25;26.73;;;4.50;;
22103;SDS011;11218;48.886;9.426;2023-02-01T13:03:59;20.95;;;4.30;;
22103;SDS011;11218;48.886;9.426;2023-02-01T13:06:37;19.20;;;3.75;;
22103;SDS011;11218;48.886;9.426;2023-02-01T13:09:15;25.55;;;4.50;;
22103;SDS011;11218;48.886;9.426;2023-02-01T13:11:50;25.50;;;5.03;;
22103;SDS011;11218;48.886;9.426;2023-02-01T13:14:25;30.67;;;5.75;;
22103;SDS011;11218;48.886;9.426;2023-02-01T13:17:04;23.60;;;4.75;;
22103;SDS011;11218;48.886;9.426;2023-02-01T13:19:40;29.52;;;4.55;;
22103;SDS011;11218;48.886;9.426;2023-02-01T13:22:15;24.55;;;4.95;;
22103;SDS011;11218;48.886;9.426;2023-02-01T13:24:48;22.58;;;4.50;;
22103;SDS011;11218;48.886;9.426;2023-02-01T13:27:19;21.02;;;4.55;;
22103;SDS011;11218;48.886;9.426;2023-02-01T13:29:50;36.38;;;5.65;;
22103;SDS011;11218;48.886;9.426;2023-02-01T13:32:38;23.50;;;5.03;;
22103;SDS011;11218;48.886;9.426;2023-02-01T13:38:40;33.08;;;6.57;;
22103;SDS011;11218;48.886;9.426;2023-02-01T13:41:25;27.83;;;5.03;;
22103;SDS011;11218;48.886;9.426;2023-02-01T13:43:59;25.27;;;5.18;;
22103;SDS011;11218;48.886;9.426;2023-02-01T13:46:30;31.45;;;4.95;;
22103;SDS011;11218;48.886;9.426;2023-02-01T13:49:13;26.08;;;4.70;;
22103;SDS011;11218;48.886;9.426;2023-02-01T13:51:48;23.70;;;4.93;;
22103;SDS011;11218;48.886;9.426;2023-02-01T13:54:26;27.48;;;5.15;;
22103;SDS011;11218;48.886;9.426;2023-02-01T13:56:58;25.70;;;5.60;;
22103;SDS011;11218;48.886;9.426;2023-02-01T13:59:46;20.45;;;4.75;;
22103;SDS011;11218;48.886;9.426;2023-02-01T14:08:41;24.55;;;5.57;;
22103;SDS011;11218;48.886;9.426;2023-02-01T14:23:17;29.75;;;5.05;;
22103;SDS011;11218;48.886;9.426;2023-02-01T14:26:04;27.13;;;4.85;;
22103;SDS011;11218;48.886;9.426;2023-02-01T14:28:36;24.40;;;4.45;;
22103;SDS011;11218;48.886;9.426;2023-02-01T14:31:28;22.40;;;5.68;;
22103;SDS011;11218;48.886;9.426;2023-02-01T14:34:11;13.27;;;3.45;;
22103;SDS011;11218;48.886;9.426;2023-02-01T14:36:47;23.08;;;4.07;;
22103;SDS011;11218;48.886;9.426;2023-02-01T14:39:32;23.73;;;4.57;;
22103;SDS011;11218;48.886;9.426;2023-02-01T14:42:05;19.45;;;4.55;;
22103;SDS011;11218;48.886;9.426;2023-02-01T14:44:48;24.45;;;4.68;;
22103;SDS011;11218;48.886;9.426;2023-02-01T14:50:18;22.50;;;4.78;;
22103;SDS011;11218;48.886;9.426;2023-02-01T14:53:03;24.20;;;4.93;;
22103;SDS011;11218;48.886;9.426;2023-02-01T14:55:41;23.90;;;4.82;;
22103;SDS011;11218;48.886;9.426;2023-02-01T14:58:14;24.70;;;5.32;;
22103;SDS011;11218;48.886;9.426;2023-02-01T15:00:47;20.17;;;4.38;;
22103;SDS011;11218;48.886;9.426;2023-02-01T15:06:23;24.60;;;5.38;;
22103;SDS011;11218;48.886;9.426;2023-02-01T15:08:54;22.00;;;5.50;;
22103;SDS011;11218;48.886;9.426;2023-02-01T15:11:27;24.23;;;5.15;;
22103;SDS011;11218;48.886;9.426;2023-02-01T15:13:55;18.27;;;5.10;;
22103;SDS011;11218;48.886;9.426;2023-02-01T15:16:26;27.38;;;7.03;;
22103;SDS011;11218;48.886;9.426;2023-02-01T15:19:08;20.52;;;5.35;;
22103;SDS011;11218;48.886;9.426;2023-02-01T15:21:45;27.83;;;5.40;;
22103;SDS011;11218;48.886;9.426;2023-02-01T15:24:19;23.45;;;5.25;;
22103;SDS011;11218;48.886;9.426;2023-02-01T15:27:01;21.52;;;5.47;;
22103;SDS011;11218;48.886;9.426;2023-02-01T15:29:43;42.28;;;10.80;;
22103;SDS011;11218;48.886;9.426;2023-02-01T15:33:18;43.30;;;8.10;;
22103;SDS011;11218;48.886;9.426;2023-02-01T15:36:32;38.70;;;9.45;;
22103;SDS011;11218;48.886;9.426;2023-02-01T15:43:33;27.60;;;6.65;;
22103;SDS011;11218;48.886;9.426;2023-02-01T15:46:07;29.98;;;6.78;;
22103;SDS011;11218;48.886;9.426;2023-02-01T15:48:41;29.90;;;7.18;;
22103;SDS011;11218;48.886;9.426;2023-02-01T15:51:19;31.83;;;7.65;;
22103;SDS011;11218;48.886;9.426;2023-02-01T15:53:51;26.52;;;7.15;;
22103;SDS011;11218;48.886;9.426;2023-02-01T15:56:24;37.85;;;8.68;;
22103;SDS011;11218;48.886;9.426;2023-02-01T15:58:56;26.27;;;7.75;;
22103;SDS011;11218;48.886;9.426;2023-02-01T16:01:27;22.35;;;5.32;;